sensor_id;sensor_type;location;lat;lon;timestamp;P1;durP1;ratioP1;P2;durP2;ratioP2
19492;SDS011;9887;54.366;10.958;2023-07-29T00:00:25;4.10;;;2.47;;
19492;SDS011;9887;54.366;10.958;2023-07-29T00:02:54;5.35;;;2.65;;
19492;SDS011;9887;54.366;10.958;2023-07-29T00:05:22;4.45;;;3.15;;
19492;SDS011;9887;54.366;10.958;2023-07-29T00:07:50;4.57;;;3.10;;
19492;SDS011;9887;54.366;10.958;2023-07-29T00:10:18;6.43;;;2.72;;
19492;SDS011;9887;54.366;10.958;2023-07-29T00:12:47;4.25;;;2.38;;
19492;SDS011;9887;54.366;10.958;2023-07-29T00:15:15;4.38;;;2.40;;
19492;SDS011;9887;54.366;10.958;2023-07-29T00:17:43;2.97;;;2.10;;
19492;SDS011;9887;54.366;10.958;2023-07-29T00:20:11;4.00;;;2.90;;
19492;SDS011;9887;54.366;10.958;2023-07-29T00:22:38;3.85;;;2.65;;
19492;SDS011;9887;54.366;10.958;2023-07-29T00:25:06;4.38;;;2.38;;
19492;SDS011;9887;54.366;10.958;2023-07-29T00:27:34;4.20;;;2.40;;
19492;SDS011;9887;54.366;10.958;2023-07-29T00:30:04;4.85;;;2.78;;
19492;SDS011;9887;54.366;10.958;2023-07-29T00:32:35;5.25;;;3.30;;
19492;SDS011;9887;54.366;10.958;2023-07-29T00:35:03;5.03;;;2.20;;
19492;SDS011;9887;54.366;10.958;2023-07-29T00:37:32;6.18;;;2.55;;
19492;SDS011;9887;54.366;10.958;2023-07-29T00:40:00;4.35;;;3.17;;
19492;SDS011;9887;54.366;10.958;2023-07-29T00:42:29;4.30;;;2.42;;
19492;SDS011;9887;54.366;10.958;2023-07-29T00:44:57;2.72;;;1.92;;
19492;SDS011;9887;54.366;10.958;2023-07-29T00:47:26;4.03;;;2.45;;
19492;SDS011;9887;54.366;10.958;2023-07-29T00:49:54;4.85;;;3.30;;
19492;SDS011;9887;54.366;10.958;2023-07-29T00:52:22;4.82;;;3.35;;
19492;SDS011;9887;54.366;10.958;2023-07-29T00:54:49;4.88;;;2.30;;
19492;SDS011;9887;54.366;10.958;2023-07-29T00:57:18;5.97;;;3.30;;
19492;SDS011;9887;54.366;10.958;2023-07-29T00:59:47;3.03;;;2.08;;
19492;SDS011;9887;54.366;10.958;2023-07-29T01:02:15;3.65;;;2.17;;
19492;SDS011;9887;54.366;10.958;2023-07-29T01:04:45;3.97;;;2.25;;
19492;SDS011;9887;54.366;10.958;2023-07-29T01:07:14;5.20;;;3.30;;
19492;SDS011;9887;54.366;10.958;2023-07-29T01:09:50;6.78;;;3.70;;
19492;SDS011;9887;54.366;10.958;2023-07-29T01:12:25;6.03;;;2.60;;
19492;SDS011;9887;54.366;10.958;2023-07-29T01:14:59;4.68;;;2.65;;
19492;SDS011;9887;54.366;10.958;2023-07-29T01:17:33;5.47;;;3.22;;
19492;SDS011;9887;54.366;10.958;2023-07-29T01:20:09;5.22;;;3.95;;
19492;SDS011;9887;54.366;10.958;2023-07-29T01:22:41;6.70;;;4.85;;
19492;SDS011;9887;54.366;10.958;2023-07-29T01:25:11;5.95;;;4.28;;
19492;SDS011;9887;54.366;10.958;2023-07-29T01:27:39;6.30;;;4.40;;
19492;SDS011;9887;54.366;10.958;2023-07-29T01:30:07;8.77;;;5.13;;
19492;SDS011;9887;54.366;10.958;2023-07-29T01:32:37;7.95;;;5.03;;
19492;SDS011;9887;54.366;10.958;2023-07-29T01:35:15;7.15;;;4.85;;
19492;SDS011;9887;54.366;10.958;2023-07-29T01:37:52;9.13;;;5.28;;
19492;SDS011;9887;54.366;10.958;2023-07-29T01:40:24;7.45;;;5.28;;
19492;SDS011;9887;54.366;10.958;2023-07-29T01:42:55;7.60;;;5.55;;
19492;SDS011;9887;54.366;10.958;2023-07-29T01:45:23;8.18;;;6.03;;
19492;SDS011;9887;54.366;10.958;2023-07-29T01:47:52;10.15;;;6.47;;
19492;SDS011;9887;54.366;10.958;2023-07-29T01:50:20;8.10;;;5.82;;
19492;SDS011;9887;54.366;10.958;2023-07-29T01:52:48;8.00;;;5.82;;
19492;SDS011;9887;54.366;10.958;2023-07-29T01:55:16;9.48;;;6.53;;
19492;SDS011;9887;54.366;10.958;2023-07-29T01:57:45;8.77;;;6.35;;
19492;SDS011;9887;54.366;10.958;2023-07-29T02:00:14;10.90;;;7.15;;
19492;SDS011;9887;54.366;10.958;2023-07-29T02:02:44;10.88;;;7.07;;
19492;SDS011;9887;54.366;10.958;2023-07-29T02:05:12;8.18;;;5.13;;
19492;SDS011;9887;54.366;10.958;2023-07-29T02:07:40;10.82;;;8.18;;
19492;SDS011;9887;54.366;10.958;2023-07-29T02:10:08;9.65;;;6.30;;
19492;SDS011;9887;54.366;10.958;2023-07-29T02:12:36;12.27;;;7.97;;
19492;SDS011;9887;54.366;10.958;2023-07-29T02:15:06;7.70;;;4.45;;
19492;SDS011;9887;54.366;10.958;2023-07-29T02:17:35;11.80;;;8.25;;
19492;SDS011;9887;54.366;10.958;2023-07-29T02:20:04;8.40;;;5.97;;
19492;SDS011;9887;54.366;10.958;2023-07-29T02:22:32;8.60;;;4.90;;
19492;SDS011;9887;54.366;10.958;2023-07-29T02:25:00;5.30;;;4.00;;
19492;SDS011;9887;54.366;10.958;2023-07-29T02:27:28;8.43;;;4.40;;
19492;SDS011;9887;54.366;10.958;2023-07-29T02:29:56;14.00;;;8.75;;
19492;SDS011;9887;54.366;10.958;2023-07-29T02:32:26;8.52;;;5.13;;
19492;SDS011;9887;54.366;10.958;2023-07-29T02:34:54;7.22;;;4.90;;
19492;SDS011;9887;54.366;10.958;2023-07-29T02:37:22;6.00;;;4.05;;
19492;SDS011;9887;54.366;10.958;2023-07-29T02:39:50;9.63;;;4.70;;
19492;SDS011;9887;54.366;10.958;2023-07-29T02:42:18;11.25;;;7.88;;
19492;SDS011;9887;54.366;10.958;2023-07-29T02:44:46;8.00;;;4.60;;
19492;SDS011;9887;54.366;10.958;2023-07-29T02:47:14;11.70;;;9.07;;
19492;SDS011;9887;54.366;10.958;2023-07-29T02:49:43;13.52;;;10.20;;
19492;SDS011;9887;54.366;10.958;2023-07-29T02:52:11;13.40;;;9.55;;
19492;SDS011;9887;54.366;10.958;2023-07-29T02:54:39;11.70;;;8.35;;
19492;SDS011;9887;54.366;10.958;2023-07-29T02:57:07;14.15;;;10.00;;
19492;SDS011;9887;54.366;10.958;2023-07-29T02:59:35;15.25;;;10.82;;
19492;SDS011;9887;54.366;10.958;2023-07-29T03:02:03;14.88;;;10.30;;
19492;SDS011;9887;54.366;10.958;2023-07-29T03:04:31;17.25;;;9.65;;
19492;SDS011;9887;54.366;10.958;2023-07-29T03:07:01;17.17;;;10.82;;
19492;SDS011;9887;54.366;10.958;2023-07-29T03:09:29;17.85;;;10.52;;
19492;SDS011;9887;54.366;10.958;2023-07-29T03:11:57;19.90;;;12.70;;
19492;SDS011;9887;54.366;10.958;2023-07-29T03:14:25;19.23;;;12.85;;
19492;SDS011;9887;54.366;10.958;2023-07-29T03:16:53;19.00;;;12.27;;
19492;SDS011;9887;54.366;10.958;2023-07-29T03:19:21;18.83;;;12.88;;
19492;SDS011;9887;54.366;10.958;2023-07-29T03:21:49;19.77;;;12.65;;
19492;SDS011;9887;54.366;10.958;2023-07-29T03:24:19;10.52;;;7.50;;
19492;SDS011;9887;54.366;10.958;2023-07-29T03:26:46;12.57;;;8.18;;
19492;SDS011;9887;54.366;10.958;2023-07-29T03:29:14;9.40;;;6.82;;
19492;SDS011;9887;54.366;10.958;2023-07-29T03:31:43;18.00;;;12.80;;
19492;SDS011;9887;54.366;10.958;2023-07-29T03:34:11;19.13;;;12.65;;
19492;SDS011;9887;54.366;10.958;2023-07-29T03:36:54;19.88;;;12.90;;
19492;SDS011;9887;54.366;10.958;2023-07-29T03:39:23;20.83;;;13.15;;
19492;SDS011;9887;54.366;10.958;2023-07-29T03:41:51;22.92;;;14.63;;
19492;SDS011;9887;54.366;10.958;2023-07-29T03:44:19;21.95;;;13.20;;
19492;SDS011;9887;54.366;10.958;2023-07-29T03:46:47;19.65;;;12.90;;
19492;SDS011;9887;54.366;10.958;2023-07-29T03:49:15;20.67;;;12.73;;
19492;SDS011;9887;54.366;10.958;2023-07-29T03:51:43;21.30;;;12.43;;
19492;SDS011;9887;54.366;10.958;2023-07-29T03:54:11;17.65;;;11.10;;
19492;SDS011;9887;54.366;10.958;2023-07-29T03:56:41;18.27;;;11.88;;
19492;SDS011;9887;54.366;10.958;2023-07-29T03:59:08;16.80;;;10.60;;
19492;SDS011;9887;54.366;10.958;2023-07-29T04:01:36;15.95;;;10.93;;
19492;SDS011;9887;54.366;10.958;2023-07-29T04:04:04;15.85;;;9.95;;
19492;SDS011;9887;54.366;10.958;2023-07-29T04:06:32;13.60;;;10.02;;
19492;SDS011;9887;54.366;10.958;2023-07-29T04:09:01;13.35;;;8.75;;
19492;SDS011;9887;54.366;10.958;2023-07-29T04:11:29;15.02;;;10.13;;
19492;SDS011;9887;54.366;10.958;2023-07-29T04:13:58;13.65;;;9.43;;
19492;SDS011;9887;54.366;10.958;2023-07-29T04:16:26;12.50;;;9.52;;
19492;SDS011;9887;54.366;10.958;2023-07-29T04:18:55;14.93;;;9.80;;
19492;SDS011;9887;54.366;10.958;2023-07-29T04:21:22;12.20;;;9.05;;
19492;SDS011;9887;54.366;10.958;2023-07-29T04:23:50;12.85;;;8.65;;
19492;SDS011;9887;54.366;10.958;2023-07-29T04:26:18;12.95;;;9.13;;
19492;SDS011;9887;54.366;10.958;2023-07-29T04:28:46;12.77;;;9.02;;
19492;SDS011;9887;54.366;10.958;2023-07-29T04:31:15;12.27;;;9.07;;
19492;SDS011;9887;54.366;10.958;2023-07-29T04:33:43;13.00;;;9.25;;
19492;SDS011;9887;54.366;10.958;2023-07-29T04:36:11;13.00;;;9.32;;
19492;SDS011;9887;54.366;10.958;2023-07-29T04:38:43;14.02;;;9.18;;
19492;SDS011;9887;54.366;10.958;2023-07-29T04:41:11;12.25;;;9.02;;
19492;SDS011;9887;54.366;10.958;2023-07-29T04:43:38;12.20;;;8.85;;
19492;SDS011;9887;54.366;10.958;2023-07-29T04:46:07;14.40;;;9.05;;
19492;SDS011;9887;54.366;10.958;2023-07-29T04:48:37;12.48;;;9.75;;
19492;SDS011;9887;54.366;10.958;2023-07-29T04:51:04;12.52;;;9.20;;
19492;SDS011;9887;54.366;10.958;2023-07-29T04:53:32;12.90;;;9.75;;
19492;SDS011;9887;54.366;10.958;2023-07-29T04:56:01;18.27;;;9.15;;
19492;SDS011;9887;54.366;10.958;2023-07-29T04:58:29;12.35;;;8.82;;
19492;SDS011;9887;54.366;10.958;2023-07-29T05:01:01;13.35;;;9.32;;
19492;SDS011;9887;54.366;10.958;2023-07-29T05:03:29;14.90;;;9.70;;
19492;SDS011;9887;54.366;10.958;2023-07-29T05:05:59;14.57;;;10.00;;
19492;SDS011;9887;54.366;10.958;2023-07-29T05:08:27;13.02;;;9.75;;
19492;SDS011;9887;54.366;10.958;2023-07-29T05:10:56;15.05;;;9.95;;
19492;SDS011;9887;54.366;10.958;2023-07-29T05:13:23;15.18;;;9.90;;
19492;SDS011;9887;54.366;10.958;2023-07-29T05:15:51;12.10;;;9.23;;
19492;SDS011;9887;54.366;10.958;2023-07-29T05:18:19;12.55;;;9.43;;
19492;SDS011;9887;54.366;10.958;2023-07-29T05:20:48;14.18;;;10.40;;
19492;SDS011;9887;54.366;10.958;2023-07-29T05:23:17;13.52;;;10.52;;
19492;SDS011;9887;54.366;10.958;2023-07-29T05:25:45;12.68;;;9.82;;
19492;SDS011;9887;54.366;10.958;2023-07-29T05:28:13;15.07;;;9.98;;
19492;SDS011;9887;54.366;10.958;2023-07-29T05:30:43;14.48;;;10.30;;
19492;SDS011;9887;54.366;10.958;2023-07-29T05:33:11;13.48;;;9.52;;
19492;SDS011;9887;54.366;10.958;2023-07-29T05:35:39;13.50;;;9.70;;
19492;SDS011;9887;54.366;10.958;2023-07-29T05:38:07;13.55;;;9.65;;
19492;SDS011;9887;54.366;10.958;2023-07-29T05:40:37;12.45;;;9.20;;
19492;SDS011;9887;54.366;10.958;2023-07-29T05:43:05;12.90;;;9.60;;
19492;SDS011;9887;54.366;10.958;2023-07-29T05:45:32;13.55;;;9.35;;
19492;SDS011;9887;54.366;10.958;2023-07-29T05:48:00;11.80;;;8.38;;
19492;SDS011;9887;54.366;10.958;2023-07-29T05:50:28;10.10;;;7.88;;
19492;SDS011;9887;54.366;10.958;2023-07-29T05:52:56;10.63;;;7.25;;
19492;SDS011;9887;54.366;10.958;2023-07-29T05:55:24;8.20;;;6.45;;
19492;SDS011;9887;54.366;10.958;2023-07-29T05:57:53;9.45;;;5.68;;
19492;SDS011;9887;54.366;10.958;2023-07-29T06:00:21;8.15;;;5.03;;
19492;SDS011;9887;54.366;10.958;2023-07-29T06:02:49;7.10;;;4.40;;
19492;SDS011;9887;54.366;10.958;2023-07-29T06:05:20;7.18;;;4.97;;
19492;SDS011;9887;54.366;10.958;2023-07-29T06:07:48;5.05;;;4.03;;
19492;SDS011;9887;54.366;10.958;2023-07-29T06:10:16;9.98;;;4.93;;
19492;SDS011;9887;54.366;10.958;2023-07-29T06:12:45;10.57;;;4.32;;
19492;SDS011;9887;54.366;10.958;2023-07-29T06:15:15;9.02;;;4.15;;
19492;SDS011;9887;54.366;10.958;2023-07-29T06:17:43;13.25;;;5.13;;
19492;SDS011;9887;54.366;10.958;2023-07-29T06:20:11;13.38;;;5.35;;
19492;SDS011;9887;54.366;10.958;2023-07-29T06:22:39;15.48;;;5.78;;
19492;SDS011;9887;54.366;10.958;2023-07-29T06:25:07;6.22;;;3.65;;
19492;SDS011;9887;54.366;10.958;2023-07-29T06:27:35;5.85;;;3.38;;
19492;SDS011;9887;54.366;10.958;2023-07-29T06:30:03;9.23;;;3.35;;
19492;SDS011;9887;54.366;10.958;2023-07-29T06:32:33;4.65;;;2.72;;
19492;SDS011;9887;54.366;10.958;2023-07-29T06:35:01;5.22;;;2.70;;
19492;SDS011;9887;54.366;10.958;2023-07-29T06:37:30;8.68;;;3.78;;
19492;SDS011;9887;54.366;10.958;2023-07-29T06:39:59;6.43;;;3.17;;
19492;SDS011;9887;54.366;10.958;2023-07-29T06:42:27;6.57;;;3.65;;
19492;SDS011;9887;54.366;10.958;2023-07-29T06:44:55;8.38;;;3.53;;
19492;SDS011;9887;54.366;10.958;2023-07-29T06:47:23;7.25;;;3.60;;
19492;SDS011;9887;54.366;10.958;2023-07-29T06:49:53;8.00;;;4.13;;
19492;SDS011;9887;54.366;10.958;2023-07-29T06:52:21;7.97;;;3.40;;
19492;SDS011;9887;54.366;10.958;2023-07-29T06:54:49;5.53;;;3.42;;
19492;SDS011;9887;54.366;10.958;2023-07-29T06:57:17;5.72;;;3.00;;
19492;SDS011;9887;54.366;10.958;2023-07-29T06:59:45;7.93;;;3.67;;
19492;SDS011;9887;54.366;10.958;2023-07-29T07:02:13;9.35;;;4.18;;
19492;SDS011;9887;54.366;10.958;2023-07-29T07:04:41;6.05;;;3.08;;
19492;SDS011;9887;54.366;10.958;2023-07-29T07:07:10;6.55;;;3.42;;
19492;SDS011;9887;54.366;10.958;2023-07-29T07:09:38;5.15;;;3.10;;
19492;SDS011;9887;54.366;10.958;2023-07-29T07:12:06;3.22;;;2.15;;
19492;SDS011;9887;54.366;10.958;2023-07-29T07:14:35;4.65;;;2.40;;
19492;SDS011;9887;54.366;10.958;2023-07-29T07:17:04;3.70;;;1.98;;
19492;SDS011;9887;54.366;10.958;2023-07-29T07:19:32;3.92;;;2.28;;
19492;SDS011;9887;54.366;10.958;2023-07-29T07:22:00;5.78;;;2.78;;
19492;SDS011;9887;54.366;10.958;2023-07-29T07:24:29;4.97;;;2.90;;
19492;SDS011;9887;54.366;10.958;2023-07-29T07:26:57;5.40;;;3.22;;
19492;SDS011;9887;54.366;10.958;2023-07-29T07:29:25;4.78;;;3.20;;
19492;SDS011;9887;54.366;10.958;2023-07-29T07:31:53;4.00;;;2.90;;
19492;SDS011;9887;54.366;10.958;2023-07-29T07:34:21;4.68;;;3.10;;
19492;SDS011;9887;54.366;10.958;2023-07-29T07:36:50;7.32;;;3.60;;
19492;SDS011;9887;54.366;10.958;2023-07-29T07:39:17;5.07;;;3.67;;
19492;SDS011;9887;54.366;10.958;2023-07-29T07:41:46;4.93;;;3.85;;
19492;SDS011;9887;54.366;10.958;2023-07-29T07:44:14;7.82;;;6.53;;
19492;SDS011;9887;54.366;10.958;2023-07-29T07:46:44;8.30;;;7.05;;
19492;SDS011;9887;54.366;10.958;2023-07-29T07:49:12;8.32;;;6.93;;
19492;SDS011;9887;54.366;10.958;2023-07-29T07:51:40;9.70;;;7.30;;
19492;SDS011;9887;54.366;10.958;2023-07-29T07:54:08;9.40;;;7.30;;
19492;SDS011;9887;54.366;10.958;2023-07-29T07:56:35;11.57;;;9.38;;
19492;SDS011;9887;54.366;10.958;2023-07-29T07:59:05;10.80;;;8.93;;
19492;SDS011;9887;54.366;10.958;2023-07-29T08:01:34;11.27;;;9.35;;
19492;SDS011;9887;54.366;10.958;2023-07-29T08:04:03;12.18;;;9.15;;
19492;SDS011;9887;54.366;10.958;2023-07-29T08:06:31;11.63;;;8.80;;
19492;SDS011;9887;54.366;10.958;2023-07-29T08:09:00;11.40;;;10.15;;
19492;SDS011;9887;54.366;10.958;2023-07-29T08:11:29;12.65;;;10.52;;
19492;SDS011;9887;54.366;10.958;2023-07-29T08:13:58;12.73;;;11.10;;
19492;SDS011;9887;54.366;10.958;2023-07-29T08:16:27;15.18;;;11.32;;
19492;SDS011;9887;54.366;10.958;2023-07-29T08:18:55;16.33;;;11.82;;
19492;SDS011;9887;54.366;10.958;2023-07-29T08:21:23;12.45;;;10.43;;
19492;SDS011;9887;54.366;10.958;2023-07-29T08:23:51;12.80;;;10.25;;
19492;SDS011;9887;54.366;10.958;2023-07-29T08:26:19;15.18;;;10.25;;
19492;SDS011;9887;54.366;10.958;2023-07-29T08:28:48;11.68;;;9.60;;
19492;SDS011;9887;54.366;10.958;2023-07-29T08:31:20;11.75;;;9.30;;
19492;SDS011;9887;54.366;10.958;2023-07-29T08:33:49;11.43;;;8.77;;
19492;SDS011;9887;54.366;10.958;2023-07-29T08:36:17;12.48;;;9.90;;
19492;SDS011;9887;54.366;10.958;2023-07-29T08:38:45;11.98;;;9.95;;
19492;SDS011;9887;54.366;10.958;2023-07-29T08:41:13;12.98;;;8.90;;
19492;SDS011;9887;54.366;10.958;2023-07-29T08:43:44;11.23;;;9.48;;
19492;SDS011;9887;54.366;10.958;2023-07-29T08:46:17;12.30;;;9.73;;
19492;SDS011;9887;54.366;10.958;2023-07-29T08:48:46;12.60;;;10.55;;
19492;SDS011;9887;54.366;10.958;2023-07-29T08:51:16;12.52;;;10.23;;
19492;SDS011;9887;54.366;10.958;2023-07-29T08:53:46;12.27;;;10.55;;
19492;SDS011;9887;54.366;10.958;2023-07-29T08:56:15;12.18;;;9.88;;
19492;SDS011;9887;54.366;10.958;2023-07-29T08:58:43;11.85;;;9.25;;
19492;SDS011;9887;54.366;10.958;2023-07-29T09:01:11;15.27;;;11.32;;
19492;SDS011;9887;54.366;10.958;2023-07-29T09:03:40;12.45;;;10.18;;
19492;SDS011;9887;54.366;10.958;2023-07-29T09:06:08;10.98;;;9.55;;
19492;SDS011;9887;54.366;10.958;2023-07-29T09:08:38;11.82;;;9.93;;
19492;SDS011;9887;54.366;10.958;2023-07-29T09:11:06;10.18;;;8.43;;
19492;SDS011;9887;54.366;10.958;2023-07-29T09:13:34;11.43;;;8.82;;
19492;SDS011;9887;54.366;10.958;2023-07-29T09:16:02;12.15;;;8.35;;
19492;SDS011;9887;54.366;10.958;2023-07-29T09:18:31;10.55;;;8.65;;
19492;SDS011;9887;54.366;10.958;2023-07-29T09:21:00;9.40;;;7.72;;
19492;SDS011;9887;54.366;10.958;2023-07-29T09:23:28;10.68;;;8.02;;
19492;SDS011;9887;54.366;10.958;2023-07-29T09:26:06;10.07;;;8.25;;
19492;SDS011;9887;54.366;10.958;2023-07-29T09:28:35;10.30;;;7.60;;
19492;SDS011;9887;54.366;10.958;2023-07-29T09:31:04;7.82;;;6.78;;
19492;SDS011;9887;54.366;10.958;2023-07-29T09:33:33;9.50;;;7.22;;
19492;SDS011;9887;54.366;10.958;2023-07-29T09:36:07;10.05;;;7.75;;
19492;SDS011;9887;54.366;10.958;2023-07-29T09:38:36;9.80;;;7.00;;
19492;SDS011;9887;54.366;10.958;2023-07-29T09:41:05;9.18;;;7.78;;
19492;SDS011;9887;54.366;10.958;2023-07-29T09:43:34;13.10;;;7.07;;
19492;SDS011;9887;54.366;10.958;2023-07-29T09:46:03;11.25;;;10.00;;
19492;SDS011;9887;54.366;10.958;2023-07-29T09:48:33;11.57;;;8.32;;
19492;SDS011;9887;54.366;10.958;2023-07-29T09:51:09;10.32;;;8.45;;
19492;SDS011;9887;54.366;10.958;2023-07-29T09:53:42;10.35;;;8.45;;
19492;SDS011;9887;54.366;10.958;2023-07-29T09:56:14;9.98;;;8.00;;
19492;SDS011;9887;54.366;10.958;2023-07-29T09:58:42;10.05;;;7.85;;
19492;SDS011;9887;54.366;10.958;2023-07-29T10:01:12;7.38;;;6.35;;
19492;SDS011;9887;54.366;10.958;2023-07-29T10:03:41;7.50;;;6.30;;
19492;SDS011;9887;54.366;10.958;2023-07-29T10:06:12;8.70;;;6.20;;
19492;SDS011;9887;54.366;10.958;2023-07-29T10:08:42;8.88;;;6.97;;
19492;SDS011;9887;54.366;10.958;2023-07-29T10:11:10;7.70;;;6.30;;
19492;SDS011;9887;54.366;10.958;2023-07-29T10:13:40;7.18;;;5.75;;
19492;SDS011;9887;54.366;10.958;2023-07-29T10:16:18;6.15;;;5.03;;
19492;SDS011;9887;54.366;10.958;2023-07-29T10:18:47;7.50;;;5.88;;
19492;SDS011;9887;54.366;10.958;2023-07-29T10:21:16;6.85;;;5.25;;
19492;SDS011;9887;54.366;10.958;2023-07-29T10:23:46;9.45;;;5.13;;
19492;SDS011;9887;54.366;10.958;2023-07-29T10:26:16;6.70;;;4.30;;
19492;SDS011;9887;54.366;10.958;2023-07-29T10:28:47;6.05;;;4.70;;
19492;SDS011;9887;54.366;10.958;2023-07-29T10:31:21;6.78;;;5.13;;
19492;SDS011;9887;54.366;10.958;2023-07-29T10:33:50;7.10;;;5.60;;
19492;SDS011;9887;54.366;10.958;2023-07-29T10:36:18;6.55;;;4.65;;
19492;SDS011;9887;54.366;10.958;2023-07-29T10:38:57;6.90;;;5.13;;
19492;SDS011;9887;54.366;10.958;2023-07-29T10:41:37;6.60;;;4.78;;
19492;SDS011;9887;54.366;10.958;2023-07-29T10:47:23;6.82;;;4.70;;
19492;SDS011;9887;54.366;10.958;2023-07-29T10:49:52;5.78;;;4.07;;
19492;SDS011;9887;54.366;10.958;2023-07-29T10:52:28;5.85;;;4.50;;
19492;SDS011;9887;54.366;10.958;2023-07-29T10:58:07;6.25;;;4.80;;
19492;SDS011;9887;54.366;10.958;2023-07-29T11:00:44;6.93;;;5.03;;
19492;SDS011;9887;54.366;10.958;2023-07-29T11:03:13;7.05;;;4.50;;
19492;SDS011;9887;54.366;10.958;2023-07-29T11:05:43;6.32;;;4.78;;
19492;SDS011;9887;54.366;10.958;2023-07-29T11:08:16;7.68;;;5.28;;
19492;SDS011;9887;54.366;10.958;2023-07-29T11:10:58;5.07;;;4.25;;
19492;SDS011;9887;54.366;10.958;2023-07-29T11:13:28;6.57;;;5.00;;
19492;SDS011;9887;54.366;10.958;2023-07-29T11:15:58;5.78;;;4.28;;
19492;SDS011;9887;54.366;10.958;2023-07-29T11:18:28;7.35;;;4.38;;
19492;SDS011;9887;54.366;10.958;2023-07-29T11:20:57;4.82;;;3.92;;
19492;SDS011;9887;54.366;10.958;2023-07-29T11:23:29;6.22;;;3.75;;
19492;SDS011;9887;54.366;10.958;2023-07-29T11:25:58;5.95;;;3.92;;
19492;SDS011;9887;54.366;10.958;2023-07-29T11:28:27;3.67;;;2.80;;
19492;SDS011;9887;54.366;10.958;2023-07-29T11:30:56;4.47;;;3.15;;
19492;SDS011;9887;54.366;10.958;2023-07-29T11:33:26;4.22;;;2.70;;
19492;SDS011;9887;54.366;10.958;2023-07-29T11:35:55;3.70;;;2.58;;
19492;SDS011;9887;54.366;10.958;2023-07-29T11:38:23;4.25;;;2.33;;
19492;SDS011;9887;54.366;10.958;2023-07-29T11:40:54;4.10;;;2.63;;
19492;SDS011;9887;54.366;10.958;2023-07-29T11:43:23;4.85;;;2.60;;
19492;SDS011;9887;54.366;10.958;2023-07-29T11:45:51;3.83;;;2.92;;
19492;SDS011;9887;54.366;10.958;2023-07-29T11:48:27;3.70;;;2.78;;
19492;SDS011;9887;54.366;10.958;2023-07-29T11:50:55;3.35;;;2.35;;
19492;SDS011;9887;54.366;10.958;2023-07-29T11:53:25;4.90;;;3.10;;
19492;SDS011;9887;54.366;10.958;2023-07-29T11:55:55;3.67;;;2.50;;
19492;SDS011;9887;54.366;10.958;2023-07-29T11:58:23;5.57;;;2.80;;
19492;SDS011;9887;54.366;10.958;2023-07-29T12:00:51;4.97;;;3.13;;
19492;SDS011;9887;54.366;10.958;2023-07-29T12:03:19;4.05;;;2.85;;
19492;SDS011;9887;54.366;10.958;2023-07-29T12:05:51;8.63;;;3.30;;
19492;SDS011;9887;54.366;10.958;2023-07-29T12:08:19;5.28;;;3.00;;
19492;SDS011;9887;54.366;10.958;2023-07-29T12:10:47;4.40;;;2.85;;
19492;SDS011;9887;54.366;10.958;2023-07-29T12:13:15;6.25;;;3.25;;
19492;SDS011;9887;54.366;10.958;2023-07-29T12:15:43;4.35;;;3.10;;
19492;SDS011;9887;54.366;10.958;2023-07-29T12:18:10;4.40;;;3.17;;
19492;SDS011;9887;54.366;10.958;2023-07-29T12:20:39;4.53;;;3.70;;
19492;SDS011;9887;54.366;10.958;2023-07-29T12:23:09;5.28;;;3.70;;
19492;SDS011;9887;54.366;10.958;2023-07-29T12:25:37;4.18;;;2.88;;
19492;SDS011;9887;54.366;10.958;2023-07-29T12:28:05;5.40;;;3.13;;
19492;SDS011;9887;54.366;10.958;2023-07-29T12:30:34;5.25;;;3.25;;
19492;SDS011;9887;54.366;10.958;2023-07-29T12:33:08;4.93;;;3.22;;
19492;SDS011;9887;54.366;10.958;2023-07-29T12:35:36;6.63;;;3.40;;
19492;SDS011;9887;54.366;10.958;2023-07-29T12:38:04;4.55;;;3.38;;
19492;SDS011;9887;54.366;10.958;2023-07-29T12:40:37;4.78;;;3.47;;
19492;SDS011;9887;54.366;10.958;2023-07-29T12:43:06;6.20;;;3.53;;
19492;SDS011;9887;54.366;10.958;2023-07-29T12:45:35;5.70;;;3.42;;
19492;SDS011;9887;54.366;10.958;2023-07-29T12:48:06;4.78;;;3.50;;
19492;SDS011;9887;54.366;10.958;2023-07-29T12:50:34;4.38;;;3.13;;
19492;SDS011;9887;54.366;10.958;2023-07-29T12:53:02;4.47;;;3.22;;
19492;SDS011;9887;54.366;10.958;2023-07-29T12:55:30;3.70;;;3.00;;
19492;SDS011;9887;54.366;10.958;2023-07-29T12:57:59;4.40;;;3.20;;
19492;SDS011;9887;54.366;10.958;2023-07-29T13:00:27;4.97;;;2.90;;
19492;SDS011;9887;54.366;10.958;2023-07-29T13:02:55;4.80;;;2.75;;
19492;SDS011;9887;54.366;10.958;2023-07-29T13:05:23;5.35;;;2.53;;
19492;SDS011;9887;54.366;10.958;2023-07-29T13:07:51;3.83;;;2.47;;
19492;SDS011;9887;54.366;10.958;2023-07-29T13:10:19;3.58;;;2.40;;
19492;SDS011;9887;54.366;10.958;2023-07-29T13:12:47;5.65;;;2.28;;
19492;SDS011;9887;54.366;10.958;2023-07-29T13:15:16;3.40;;;2.20;;
19492;SDS011;9887;54.366;10.958;2023-07-29T13:17:44;3.63;;;2.35;;
19492;SDS011;9887;54.366;10.958;2023-07-29T13:20:12;3.63;;;2.42;;
19492;SDS011;9887;54.366;10.958;2023-07-29T13:22:40;3.28;;;2.40;;
19492;SDS011;9887;54.366;10.958;2023-07-29T13:25:08;2.95;;;2.10;;
19492;SDS011;9887;54.366;10.958;2023-07-29T13:27:36;3.90;;;2.20;;
19492;SDS011;9887;54.366;10.958;2023-07-29T13:30:04;2.80;;;1.90;;
19492;SDS011;9887;54.366;10.958;2023-07-29T13:32:34;3.13;;;2.00;;
19492;SDS011;9887;54.366;10.958;2023-07-29T13:35:02;3.63;;;2.13;;
19492;SDS011;9887;54.366;10.958;2023-07-29T13:37:30;3.92;;;1.80;;
19492;SDS011;9887;54.366;10.958;2023-07-29T13:39:58;3.63;;;1.80;;
19492;SDS011;9887;54.366;10.958;2023-07-29T13:42:26;6.85;;;2.00;;
19492;SDS011;9887;54.366;10.958;2023-07-29T13:44:54;4.57;;;1.90;;
19492;SDS011;9887;54.366;10.958;2023-07-29T13:47:21;4.30;;;1.77;;
19492;SDS011;9887;54.366;10.958;2023-07-29T13:49:51;2.97;;;1.88;;
19492;SDS011;9887;54.366;10.958;2023-07-29T13:52:18;5.32;;;1.88;;
19492;SDS011;9887;54.366;10.958;2023-07-29T13:54:46;10.23;;;2.20;;
19492;SDS011;9887;54.366;10.958;2023-07-29T13:57:14;3.45;;;2.10;;
19492;SDS011;9887;54.366;10.958;2023-07-29T13:59:42;2.72;;;1.45;;
19492;SDS011;9887;54.366;10.958;2023-07-29T14:02:10;4.97;;;2.30;;
19492;SDS011;9887;54.366;10.958;2023-07-29T14:04:38;3.63;;;2.45;;
19492;SDS011;9887;54.366;10.958;2023-07-29T14:07:07;4.32;;;2.15;;
19492;SDS011;9887;54.366;10.958;2023-07-29T14:09:35;4.80;;;2.30;;
19492;SDS011;9887;54.366;10.958;2023-07-29T14:12:04;3.63;;;2.05;;
19492;SDS011;9887;54.366;10.958;2023-07-29T14:14:32;2.85;;;1.88;;
19492;SDS011;9887;54.366;10.958;2023-07-29T14:17:00;4.28;;;1.98;;
19492;SDS011;9887;54.366;10.958;2023-07-29T14:19:28;3.42;;;1.90;;
19492;SDS011;9887;54.366;10.958;2023-07-29T14:21:56;4.50;;;1.80;;
19492;SDS011;9887;54.366;10.958;2023-07-29T14:24:25;2.92;;;2.03;;
19492;SDS011;9887;54.366;10.958;2023-07-29T14:26:53;5.05;;;2.22;;
19492;SDS011;9887;54.366;10.958;2023-07-29T14:29:20;4.68;;;2.08;;
19492;SDS011;9887;54.366;10.958;2023-07-29T14:31:48;4.28;;;1.90;;
19492;SDS011;9887;54.366;10.958;2023-07-29T14:34:16;3.95;;;2.70;;
19492;SDS011;9887;54.366;10.958;2023-07-29T14:36:44;3.85;;;2.45;;
19492;SDS011;9887;54.366;10.958;2023-07-29T14:39:12;4.20;;;2.38;;
19492;SDS011;9887;54.366;10.958;2023-07-29T14:41:41;4.07;;;2.70;;
19492;SDS011;9887;54.366;10.958;2023-07-29T14:44:09;3.50;;;2.40;;
19492;SDS011;9887;54.366;10.958;2023-07-29T14:46:37;3.88;;;2.30;;
19492;SDS011;9887;54.366;10.958;2023-07-29T14:49:05;3.47;;;2.40;;
19492;SDS011;9887;54.366;10.958;2023-07-29T14:51:33;3.97;;;2.42;;
19492;SDS011;9887;54.366;10.958;2023-07-29T14:54:02;3.45;;;2.08;;
19492;SDS011;9887;54.366;10.958;2023-07-29T14:56:30;3.92;;;2.10;;